2TX7 weather

Jw Airport
Justin, Texas, United States

Public forecast

Using degrees Fahrenheit for public forecast. Weather courtesy of forecast.io.

METAR (pilot weather report)

Closest report is Fort Worth Alliance Airport, 7.5 nm (13.9 km) SSE. Retrieved 2019/07/21 04:53 UTC (2 hours ago):

KAFW 210453Z 16011KT 10SM FEW300 30/21 A2988 RMK AO2 SLP101 T03000206

TAF (pilot weather forecast)

Closest forecast is Fort Worth Alliance Airport, 7.5 nm (13.9 km) SSE. Retrieved 2019/07/21 06:22 UTC (2 minutes ago):

TAF KAFW 210520Z 2106/2206 16015KT P6SM FEW250